Time;durP1;ratioP1;P1;durP2;ratioP2;P2;SDS_P1;SDS_P2;PMS_P1;PMS_P2;Temp;Humidity;BMP_temperature;BMP_pressure;BME280_temperature;BME280_humidity;BME280_pressure;Samples;Min_cycle;Max_cycle;Signal;HPM_P1;HPM_P2
2022/03/07 00:00:11;;;;;;;2.45;2.35;;;;;;;;;;5028827;28;20119;-75
2022/03/07 00:02:37;;;;;;;2.15;1.85;;;;;;;;;;5028695;28;20121;-74
2022/03/07 00:05:03;;;;;;;2.05;1.90;;;;;;;;;;5030057;28;20072;-75
2022/03/07 00:07:29;;;;;;;1.88;1.77;;;;;;;;;;5032156;28;20076;-77
2022/03/07 00:09:55;;;;;;;1.17;1.17;;;;;;;;;;5032798;28;20049;-74
2022/03/07 00:12:22;;;;;;;2.35;2.25;;;;;;;;;;5014788;28;20440;-75
2022/03/07 00:14:48;;;;;;;2.08;1.98;;;;;;;;;;5032687;28;20042;-74
2022/03/07 00:17:14;;;;;;;4.93;2.42;;;;;;;;;;5032096;28;20041;-75
2022/03/07 00:19:40;;;;;;;1.90;1.80;;;;;;;;;;5031370;28;20479;-75
2022/03/07 00:22:06;;;;;;;2.35;2.22;;;;;;;;;;5032938;28;20104;-74
2022/03/07 00:24:32;;;;;;;6.65;1.58;;;;;;;;;;5032896;28;20665;-72
2022/03/07 00:26:57;;;;;;;4.65;2.10;;;;;;;;;;5032696;28;20033;-72
2022/03/07 00:29:23;;;;;;;2.10;2.00;;;;;;;;;;5032720;28;20144;-74
2022/03/07 00:31:49;;;;;;;2.00;1.90;;;;;;;;;;5033020;28;20189;-74
2022/03/07 00:34:15;;;;;;;1.58;1.58;;;;;;;;;;4998296;28;20041;-74
2022/03/07 00:36:41;;;;;;;3.10;2.28;;;;;;;;;;5030658;28;20088;-75
2022/03/07 00:39:07;;;;;;;1.83;1.73;;;;;;;;;;5032138;28;20048;-73
2022/03/07 00:41:33;;;;;;;2.63;2.47;;;;;;;;;;5014057;28;20406;-74
2022/03/07 00:43:59;;;;;;;1.70;1.60;;;;;;;;;;5014403;28;20049;-74
2022/03/07 00:46:24;;;;;;;2.20;2.10;;;;;;;;;;5032245;28;20056;-74
2022/03/07 00:48:50;;;;;;;2.60;2.40;;;;;;;;;;5036230;28;20045;-74
2022/03/07 00:51:16;;;;;;;2.30;2.20;;;;;;;;;;5023806;28;20076;-73
2022/03/07 00:53:42;;;;;;;2.10;1.95;;;;;;;;;;5024078;28;20041;-74
2022/03/07 00:56:10;;;;;;;2.28;2.17;;;;;;;;;;5042704;28;20521;-72
2022/03/07 00:58:36;;;;;;;2.20;2.10;;;;;;;;;;5040847;28;20548;-73
2022/03/07 01:01:01;;;;;;;2.13;2.03;;;;;;;;;;5032574;28;20041;-73
2022/03/07 01:03:27;;;;;;;1.88;1.77;;;;;;;;;;5014104;28;20053;-73
2022/03/07 01:05:53;;;;;;;1.92;1.65;;;;;;;;;;5013936;28;20059;-73
2022/03/07 01:08:19;;;;;;;2.13;2.03;;;;;;;;;;5031594;28;20041;-74
2022/03/07 01:10:45;;;;;;;2.22;2.00;;;;;;;;;;5013710;28;20052;-75
2022/03/07 01:13:10;;;;;;;1.20;1.20;;;;;;;;;;4997550;28;20094;-74
2022/03/07 01:15:36;;;;;;;2.60;2.15;;;;;;;;;;5031160;28;20077;-74
2022/03/07 01:18:04;;;;;;;1.98;1.88;;;;;;;;;;5029460;28;20049;-74
2022/03/07 01:20:30;;;;;;;2.28;2.17;;;;;;;;;;5029952;28;20061;-74
2022/03/07 01:22:56;;;;;;;1.67;1.58;;;;;;;;;;5031013;28;20449;-74
2022/03/07 01:25:22;;;;;;;2.50;2.00;;;;;;;;;;5013100;28;20060;-73
2022/03/07 01:27:48;;;;;;;3.58;2.72;;;;;;;;;;5030904;28;20409;-74
2022/03/07 01:30:14;;;;;;;1.98;1.88;;;;;;;;;;5013359;28;20045;-74
2022/03/07 01:32:41;;;;;;;2.08;1.98;;;;;;;;;;5030876;28;20792;-73
2022/03/07 01:35:07;;;;;;;2.10;1.90;;;;;;;;;;5013175;28;20658;-74
2022/03/07 01:37:33;;;;;;;2.25;2.05;;;;;;;;;;5012676;28;20420;-74
2022/03/07 01:39:58;;;;;;;1.25;1.25;;;;;;;;;;5012952;28;20478;-74
2022/03/07 01:42:25;;;;;;;2.22;2.13;;;;;;;;;;5012626;28;20591;-74
2022/03/07 01:44:52;;;;;;;2.30;2.20;;;;;;;;;;5013094;28;20060;-74
2022/03/07 01:47:18;;;;;;;4.57;2.10;;;;;;;;;;5030206;28;20033;-74
2022/03/07 01:49:44;;;;;;;3.22;2.42;;;;;;;;;;5030496;28;20140;-73
2022/03/07 01:52:10;;;;;;;2.25;2.00;;;;;;;;;;5012797;28;20120;-73
2022/03/07 01:54:36;;;;;;;2.10;2.00;;;;;;;;;;5012518;28;20123;-73
2022/03/07 01:57:02;;;;;;;2.10;2.00;;;;;;;;;;5031199;28;20033;-74
2022/03/07 01:59:28;;;;;;;3.28;2.97;;;;;;;;;;5013625;28;20402;-73
2022/03/07 02:01:54;;;;;;;2.30;2.20;;;;;;;;;;5013249;28;20048;-74
2022/03/07 02:04:21;;;;;;;2.35;2.20;;;;;;;;;;5012374;28;20513;-74
2022/03/07 02:06:48;;;;;;;2.55;2.35;;;;;;;;;;5012779;28;20045;-74
2022/03/07 02:09:14;;;;;;;3.03;2.20;;;;;;;;;;5012286;28;20493;-74
2022/03/07 02:11:43;;;;;;;2.25;2.15;;;;;;;;;;5012470;28;20049;-74
2022/03/07 02:14:18;;;;;;;2.17;1.98;;;;;;;;;;5012381;28;20034;-73
2022/03/07 02:16:47;;;;;;;2.33;2.20;;;;;;;;;;4996006;28;20426;-74
2022/03/07 02:19:13;;;;;;;2.20;2.10;;;;;;;;;;5029977;28;20041;-74
2022/03/07 02:21:44;;;;;;;2.97;2.10;;;;;;;;;;5012128;28;20053;-74
2022/03/07 02:24:14;;;;;;;1.15;1.15;;;;;;;;;;4996027;28;20045;-74
2022/03/07 02:26:43;;;;;;;2.30;2.00;;;;;;;;;;5029906;28;20049;-74
2022/03/07 02:29:09;;;;;;;3.70;2.25;;;;;;;;;;4994960;28;20039;-75
2022/03/07 02:31:36;;;;;;;2.63;1.90;;;;;;;;;;5012142;28;20080;-74
2022/03/07 02:34:06;;;;;;;2.10;2.00;;;;;;;;;;5012268;28;20494;-73
2022/03/07 02:36:32;;;;;;;2.33;1.90;;;;;;;;;;4994716;28;20053;-74
2022/03/07 02:39:00;;;;;;;2.22;1.65;;;;;;;;;;5011884;28;20459;-74
2022/03/07 02:41:26;;;;;;;3.28;2.00;;;;;;;;;;5029479;28;20138;-73
2022/03/07 02:43:53;;;;;;;6.22;1.90;;;;;;;;;;5012013;28;20037;-73
2022/03/07 02:46:19;;;;;;;2.05;1.83;;;;;;;;;;5029627;28;20438;-73
2022/03/07 02:48:44;;;;;;;2.60;1.98;;;;;;;;;;5011607;28;20049;-74
2022/03/07 02:51:10;;;;;;;2.35;1.95;;;;;;;;;;5028252;28;20140;-74
2022/03/07 02:53:36;;;;;;;3.58;1.80;;;;;;;;;;4995293;28;20057;-74
2022/03/07 02:56:02;;;;;;;2.30;2.20;;;;;;;;;;5029727;28;20084;-74
2022/03/07 02:58:28;;;;;;;4.13;1.95;;;;;;;;;;5029030;28;20454;-75
2022/03/07 03:00:54;;;;;;;4.50;2.80;;;;;;;;;;5029419;28;20061;-74
2022/03/07 03:03:21;;;;;;;4.65;2.85;;;;;;;;;;5029078;28;20041;-74
2022/03/07 03:05:46;;;;;;;5.95;3.30;;;;;;;;;;5011847;28;20115;-75
2022/03/07 03:08:12;;;;;;;8.52;3.65;;;;;;;;;;5029266;28;20042;-74
2022/03/07 03:10:38;;;;;;;6.45;4.07;;;;;;;;;;5029211;28;20050;-75
2022/03/07 03:13:04;;;;;;;6.03;4.38;;;;;;;;;;5029111;28;20088;-75
2022/03/07 03:15:30;;;;;;;4.95;3.58;;;;;;;;;;5029244;28;20071;-74
2022/03/07 03:17:55;;;;;;;4.65;2.90;;;;;;;;;;5029176;28;20034;-74
2022/03/07 03:20:21;;;;;;;2.65;2.45;;;;;;;;;;5028072;28;20045;-75
2022/03/07 03:22:47;;;;;;;2.05;1.88;;;;;;;;;;5029047;28;20041;-74
2022/03/07 03:25:15;;;;;;;2.40;2.22;;;;;;;;;;5011680;28;20085;-75
2022/03/07 03:27:41;;;;;;;2.58;2.13;;;;;;;;;;5029040;28;20050;-75
2022/03/07 03:30:07;;;;;;;3.00;2.20;;;;;;;;;;5029388;28;20087;-74
2022/03/07 03:32:33;;;;;;;2.30;2.20;;;;;;;;;;5029163;28;20033;-75
2022/03/07 03:34:59;;;;;;;2.00;1.90;;;;;;;;;;5028002;28;20103;-75
2022/03/07 03:37:25;;;;;;;2.40;2.28;;;;;;;;;;5029159;28;20077;-74
2022/03/07 03:39:51;;;;;;;2.22;2.08;;;;;;;;;;5030577;28;20041;-74
2022/03/07 03:42:17;;;;;;;4.00;2.58;;;;;;;;;;5033196;28;20041;-75
2022/03/07 03:44:43;;;;;;;3.10;2.55;;;;;;;;;;5032929;28;20128;-74
2022/03/07 03:47:09;;;;;;;2.85;2.30;;;;;;;;;;5033310;28;20045;-75
2022/03/07 03:49:35;;;;;;;2.53;2.10;;;;;;;;;;5032753;28;20038;-74
2022/03/07 03:52:01;;;;;;;1.95;1.85;;;;;;;;;;5031408;28;20045;-74
2022/03/07 03:54:27;;;;;;;4.10;3.10;;;;;;;;;;5032263;28;20525;-75
2022/03/07 03:56:53;;;;;;;4.03;2.35;;;;;;;;;;4998724;28;20052;-75
2022/03/07 03:59:19;;;;;;;2.08;1.98;;;;;;;;;;5028485;28;20417;-74
2022/03/07 04:01:45;;;;;;;3.80;2.10;;;;;;;;;;5032442;28;20627;-74
2022/03/07 04:04:14;;;;;;;2.17;2.08;;;;;;;;;;5032455;28;20033;-75
2022/03/07 04:06:40;;;;;;;2.53;2.42;;;;;;;;;;5016461;28;20266;-74
2022/03/07 04:09:14;;;;;;;2.22;2.13;;;;;;;;;;4994940;28;20588;-75
2022/03/07 04:11:40;;;;;;;2.15;2.05;;;;;;;;;;5012044;28;20074;-74
2022/03/07 04:14:06;;;;;;;2.35;2.15;;;;;;;;;;5032361;28;20497;-74
2022/03/07 04:16:32;;;;;;;2.33;2.13;;;;;;;;;;5032132;28;20425;-74
2022/03/07 04:18:58;;;;;;;3.88;2.47;;;;;;;;;;5032281;28;20050;-75
2022/03/07 04:21:26;;;;;;;2.33;2.22;;;;;;;;;;5032450;28;20056;-74
2022/03/07 04:23:55;;;;;;;3.17;2.35;;;;;;;;;;5032226;28;20045;-73
2022/03/07 04:26:21;;;;;;;4.40;2.30;;;;;;;;;;5008931;28;20046;-75
2022/03/07 04:28:46;;;;;;;4.63;2.13;;;;;;;;;;5010791;28;20046;-74
2022/03/07 04:31:12;;;;;;;2.95;2.30;;;;;;;;;;5012464;28;20066;-73
2022/03/07 04:33:38;;;;;;;2.72;2.00;;;;;;;;;;5012138;28;20050;-75
2022/03/07 04:36:04;;;;;;;2.25;2.05;;;;;;;;;;5012595;28;20038;-74
2022/03/07 04:38:30;;;;;;;10.48;2.00;;;;;;;;;;5011859;28;20137;-74
2022/03/07 04:40:55;;;;;;;2.22;2.13;;;;;;;;;;5012350;28;20422;-75
2022/03/07 04:43:21;;;;;;;2.15;2.00;;;;;;;;;;5011940;28;20053;-75
2022/03/07 04:45:47;;;;;;;2.33;2.15;;;;;;;;;;5011772;28;20839;-76
2022/03/07 04:48:14;;;;;;;2.30;2.20;;;;;;;;;;5012136;28;20576;-73
2022/03/07 04:50:40;;;;;;;2.67;2.30;;;;;;;;;;4995265;28;20049;-73
2022/03/07 04:53:06;;;;;;;2.17;1.98;;;;;;;;;;5012746;28;20079;-75
2022/03/07 04:55:32;;;;;;;2.30;2.00;;;;;;;;;;5013957;28;20066;-74
2022/03/07 04:57:58;;;;;;;2.75;2.17;;;;;;;;;;5010662;28;20140;-74
2022/03/07 05:00:23;;;;;;;1.55;1.52;;;;;;;;;;5011671;28;20054;-75
2022/03/07 05:02:49;;;;;;;2.70;2.30;;;;;;;;;;5011586;28;20053;-75
2022/03/07 05:05:15;;;;;;;3.17;2.08;;;;;;;;;;5011582;28;20081;-75
2022/03/07 05:07:41;;;;;;;7.63;2.47;;;;;;;;;;5010251;28;20129;-75
2022/03/07 05:10:07;;;;;;;7.13;2.00;;;;;;;;;;5011632;28;20133;-75
2022/03/07 05:12:33;;;;;;;3.85;2.47;;;;;;;;;;5019553;28;20534;-76
2022/03/07 05:14:59;;;;;;;2.60;2.05;;;;;;;;;;5031194;28;20037;-75
2022/03/07 05:17:25;;;;;;;2.63;2.45;;;;;;;;;;5031389;28;20464;-76
2022/03/07 05:19:51;;;;;;;6.45;2.88;;;;;;;;;;5030934;28;20124;-75
2022/03/07 05:22:17;;;;;;;3.40;3.10;;;;;;;;;;5013701;28;20049;-76
2022/03/07 05:24:43;;;;;;;3.90;2.60;;;;;;;;;;5030868;28;20060;-75
2022/03/07 05:27:09;;;;;;;3.70;3.10;;;;;;;;;;5031140;28;20041;-75
2022/03/07 05:29:34;;;;;;;5.32;2.88;;;;;;;;;;5030808;28;20124;-74
2022/03/07 05:32:00;;;;;;;6.40;3.17;;;;;;;;;;5013450;28;20041;-76
2022/03/07 05:34:26;;;;;;;3.35;2.60;;;;;;;;;;5030913;28;20509;-75
2022/03/07 05:36:52;;;;;;;2.15;1.98;;;;;;;;;;5030688;28;20084;-76
2022/03/07 05:39:19;;;;;;;2.95;2.50;;;;;;;;;;5030956;28;20583;-75
2022/03/07 05:41:45;;;;;;;4.30;2.50;;;;;;;;;;5012979;28;20049;-75
2022/03/07 05:44:11;;;;;;;3.25;2.45;;;;;;;;;;5030651;28;20055;-75
2022/03/07 05:46:36;;;;;;;2.30;2.20;;;;;;;;;;5030464;28;20529;-74
2022/03/07 05:49:02;;;;;;;2.55;2.25;;;;;;;;;;5030570;28;20048;-74
2022/03/07 05:51:29;;;;;;;2.45;2.10;;;;;;;;;;5030678;28;20037;-74
2022/03/07 05:53:55;;;;;;;2.63;2.42;;;;;;;;;;5012648;28;20415;-75
2022/03/07 05:56:21;;;;;;;2.97;2.25;;;;;;;;;;5029487;28;20053;-74
2022/03/07 05:58:47;;;;;;;2.92;2.42;;;;;;;;;;5030052;28;20038;-75
2022/03/07 06:01:13;;;;;;;2.65;2.45;;;;;;;;;;4996631;28;20061;-74
2022/03/07 06:03:39;;;;;;;2.50;2.35;;;;;;;;;;5028798;28;20046;-75
2022/03/07 06:06:04;;;;;;;1.33;1.33;;;;;;;;;;5024817;28;20053;-76
2022/03/07 06:08:31;;;;;;;2.67;2.47;;;;;;;;;;5037249;28;20060;-76
2022/03/07 06:10:57;;;;;;;2.75;2.35;;;;;;;;;;5030999;28;20103;-75
2022/03/07 06:13:23;;;;;;;4.07;2.97;;;;;;;;;;5029121;28;20132;-76
2022/03/07 06:15:49;;;;;;;5.15;2.80;;;;;;;;;;5031333;28;20128;-75
2022/03/07 06:18:15;;;;;;;2.05;1.77;;;;;;;;;;5013498;28;20096;-75
2022/03/07 06:20:41;;;;;;;7.47;2.17;;;;;;;;;;5007940;28;20107;-75
2022/03/07 06:23:07;;;;;;;2.88;2.45;;;;;;;;;;5041986;28;20065;-75
2022/03/07 06:25:36;;;;;;;2.53;2.30;;;;;;;;;;5040930;28;20077;-76
2022/03/07 06:28:02;;;;;;;2.78;2.28;;;;;;;;;;5042370;28;20038;-76
2022/03/07 06:30:28;;;;;;;3.75;2.78;;;;;;;;;;5032651;28;20048;-74
2022/03/07 06:32:54;;;;;;;3.58;2.90;;;;;;;;;;5030200;28;20029;-74
2022/03/07 06:35:20;;;;;;;2.65;2.45;;;;;;;;;;5028778;28;20056;-74
2022/03/07 06:37:47;;;;;;;1.65;1.60;;;;;;;;;;5011225;28;20046;-74
2022/03/07 06:40:13;;;;;;;4.25;3.20;;;;;;;;;;5028523;28;20046;-74
2022/03/07 06:42:39;;;;;;;4.28;2.45;;;;;;;;;;5029864;28;20513;-75
2022/03/07 06:45:05;;;;;;;4.68;3.10;;;;;;;;;;5029715;28;20061;-74
2022/03/07 06:47:31;;;;;;;2.97;2.67;;;;;;;;;;5028650;28;20072;-75
2022/03/07 06:49:58;;;;;;;2.58;2.38;;;;;;;;;;5023218;28;20057;-75
2022/03/07 06:52:27;;;;;;;4.72;2.90;;;;;;;;;;5012868;28;20029;-75
2022/03/07 06:54:53;;;;;;;4.90;2.72;;;;;;;;;;5023896;28;20049;-75
2022/03/07 06:57:19;;;;;;;4.35;3.15;;;;;;;;;;5029869;28;20128;-75
2022/03/07 06:59:45;;;;;;;9.23;2.75;;;;;;;;;;5029310;28;20144;-75
2022/03/07 07:02:11;;;;;;;4.55;3.20;;;;;;;;;;5029548;28;20034;-75
2022/03/07 07:04:37;;;;;;;3.22;2.60;;;;;;;;;;5029183;28;20053;-75
2022/03/07 07:07:03;;;;;;;3.20;2.90;;;;;;;;;;5012266;28;20132;-75
2022/03/07 07:09:29;;;;;;;6.43;2.92;;;;;;;;;;5005340;28;20126;-76
2022/03/07 07:11:55;;;;;;;4.00;3.33;;;;;;;;;;5024396;28;20072;-75
2022/03/07 07:14:21;;;;;;;3.63;2.75;;;;;;;;;;5021041;28;20046;-75
2022/03/07 07:16:47;;;;;;;2.20;2.10;;;;;;;;;;5019310;28;20501;-77
2022/03/07 07:19:14;;;;;;;4.40;2.28;;;;;;;;;;5032668;28;20421;-75
2022/03/07 07:21:40;;;;;;;1.90;1.83;;;;;;;;;;5013722;28;20049;-77
2022/03/07 07:24:06;;;;;;;2.60;2.13;;;;;;;;;;5029555;28;20178;-75
2022/03/07 07:26:32;;;;;;;2.15;2.03;;;;;;;;;;5014616;28;20092;-75
2022/03/07 07:28:58;;;;;;;2.78;2.50;;;;;;;;;;5027860;28;20753;-75
2022/03/07 07:31:24;;;;;;;2.90;2.70;;;;;;;;;;5027636;28;20073;-74
2022/03/07 07:33:50;;;;;;;3.90;3.17;;;;;;;;;;5020892;28;20034;-75
2022/03/07 07:36:16;;;;;;;2.13;1.92;;;;;;;;;;5022702;28;20049;-75
2022/03/07 07:38:42;;;;;;;2.97;2.70;;;;;;;;;;5020219;28;20036;-75
2022/03/07 07:41:08;;;;;;;4.88;2.85;;;;;;;;;;5034232;28;20402;-76
2022/03/07 07:43:35;;;;;;;2.10;1.77;;;;;;;;;;5037352;28;20042;-76
2022/03/07 07:46:01;;;;;;;4.15;2.70;;;;;;;;;;5035627;28;20080;-77
2022/03/07 07:48:27;;;;;;;3.45;2.80;;;;;;;;;;5036671;28;20079;-75
2022/03/07 07:50:53;;;;;;;4.35;2.20;;;;;;;;;;5036683;28;20613;-74
2022/03/07 07:53:19;;;;;;;1.88;1.75;;;;;;;;;;5014945;28;20026;-74
2022/03/07 07:55:45;;;;;;;2.22;2.13;;;;;;;;;;5021665;28;20053;-74
2022/03/07 23:31:45;;;;;;;35.22;28.45;;;;;;;;;;5035784;28;20064;-74
2022/03/07 23:34:11;;;;;;;37.75;24.83;;;;;;;;;;5039990;28;20053;-74
2022/03/07 23:36:37;;;;;;;41.30;31.25;;;;;;;;;;5019793;28;20413;-75
2022/03/07 23:39:04;;;;;;;38.00;28.98;;;;;;;;;;5020973;28;20106;-74
2022/03/07 23:41:30;;;;;;;35.70;26.80;;;;;;;;;;5039547;28;20037;-75
2022/03/07 23:43:56;;;;;;;31.73;22.55;;;;;;;;;;5016539;28;20033;-74
2022/03/07 23:46:22;;;;;;;28.27;23.23;;;;;;;;;;5038350;28;20049;-74
2022/03/07 23:48:48;;;;;;;24.83;19.88;;;;;;;;;;5014431;28;20045;-73
2022/03/07 23:51:13;;;;;;;22.92;18.10;;;;;;;;;;5009493;28;20488;-74
2022/03/07 23:53:41;;;;;;;30.33;22.75;;;;;;;;;;5035697;28;20033;-74
2022/03/07 23:56:07;;;;;;;24.85;20.35;;;;;;;;;;5008364;28;20037;-74
2022/03/07 23:58:34;;;;;;;24.67;20.70;;;;;;;;;;5024539;28;20120;-74
